createdAt,value
2018-09-24T00:00:34.243Z,101094.57
2018-09-24T00:03:01.570Z,101094.20
2018-09-24T00:05:28.829Z,101100.23
2018-09-24T00:07:56.158Z,101113.75
2018-09-24T00:10:23.596Z,101118.45
2018-09-24T00:12:50.904Z,101117.92
2018-09-24T00:15:18.209Z,101118.64
2018-09-24T00:17:45.469Z,101117.06
2018-09-24T00:20:13.092Z,101124.72
2018-09-24T00:22:40.358Z,101131.89
2018-09-24T00:25:07.703Z,101138.55
2018-09-24T00:27:35.026Z,101140.12
2018-09-24T00:30:02.346Z,101154.56
2018-09-24T00:32:29.634Z,101158.38
2018-09-24T00:34:56.914Z,101167.20
2018-09-24T00:37:24.234Z,101152.13
2018-09-24T00:39:51.586Z,101161.84
2018-09-24T00:42:19.015Z,101152.09
2018-09-24T00:44:46.360Z,101169.95
2018-09-24T00:47:13.678Z,101159.75
2018-09-24T00:49:40.934Z,101162.05
2018-09-24T00:52:08.266Z,101182.80
2018-09-24T00:54:35.542Z,101186.33
2018-09-24T00:57:02.826Z,101196.65
2018-09-24T00:59:30.118Z,101193.41
2018-09-24T01:01:57.418Z,101203.83
2018-09-24T01:04:25.099Z,101209.20
2018-09-24T01:06:52.392Z,101214.81
2018-09-24T01:09:19.674Z,101226.86
2018-09-24T01:11:46.958Z,101223.37
2018-09-24T01:14:14.245Z,101223.42
2018-09-24T01:16:41.725Z,101223.90
2018-09-24T01:19:09.082Z,101219.66
2018-09-24T01:21:36.384Z,101221.83
2018-09-24T01:24:03.621Z,101234.06
2018-09-24T01:26:30.925Z,101236.36
2018-09-24T01:28:58.243Z,101252.56
2018-09-24T01:31:25.548Z,101256.25
2018-09-24T01:33:52.849Z,101257.76
2018-09-24T01:36:20.135Z,101257.47
2018-09-24T01:38:47.451Z,101260.75
2018-09-24T01:41:14.729Z,101274.67
2018-09-24T01:43:42.064Z,101283.91
2018-09-24T01:46:09.385Z,101282.97
2018-09-24T01:48:36.687Z,101288.22
2018-09-24T01:51:04.011Z,101298.75
2018-09-24T01:53:31.281Z,101308.45
2018-09-24T01:55:58.544Z,101317.30
2018-09-24T01:58:25.847Z,101318.56
2018-09-24T02:00:55.970Z,101319.87
2018-09-24T02:03:31.290Z,101324.22
2018-09-24T02:05:58.566Z,101332.90
2018-09-24T02:08:25.820Z,101338.14
2018-09-24T02:10:53.118Z,101341.53
2018-09-24T02:13:20.440Z,101351.72
2018-09-24T02:15:47.794Z,101348.02
2018-09-24T02:18:15.077Z,101347.27
2018-09-24T02:20:45.065Z,101348.66
2018-09-24T02:23:13.111Z,101337.80
2018-09-24T02:25:40.402Z,101347.46
2018-09-24T02:28:07.696Z,101368.34
2018-09-24T02:30:34.967Z,101367.85
2018-09-24T02:33:06.845Z,101384.50
2018-09-24T02:35:34.273Z,101383.59
2018-09-24T02:38:01.556Z,101373.58
2018-09-24T02:40:28.911Z,101382.59
2018-09-24T02:42:56.212Z,101399.36
2018-09-24T02:45:23.542Z,101407.33
2018-09-24T02:47:50.831Z,101406.03
2018-09-24T02:50:18.183Z,101407.33
2018-09-24T02:52:45.459Z,101402.10
2018-09-24T02:55:17.416Z,101430.36
2018-09-24T02:57:44.840Z,101416.70
2018-09-24T03:00:15.995Z,101417.72
2018-09-24T03:02:43.659Z,101414.27
2018-09-24T03:05:11.025Z,101414.64
2018-09-24T03:07:38.281Z,101420.74
2018-09-24T03:10:05.618Z,101413.97
2018-09-24T03:12:32.945Z,101427.53
2018-09-24T03:15:00.305Z,101418.84
2018-09-24T03:17:27.651Z,101423.27
2018-09-24T03:19:54.897Z,101420.81
2018-09-24T03:22:23.475Z,101439.73
2018-09-24T03:24:51.306Z,101448.56
2018-09-24T03:27:18.766Z,101442.47
2018-09-24T03:29:46.027Z,101440.04
2018-09-24T03:32:13.361Z,101435.77
2018-09-24T03:34:41.150Z,101444.86
2018-09-24T03:37:08.657Z,101441.14
2018-09-24T03:39:36.024Z,101433.03
2018-09-24T03:42:03.522Z,101450.84
2018-09-24T03:44:30.774Z,101454.99
2018-09-24T03:46:58.060Z,101461.46
2018-09-24T03:49:25.484Z,101463.95
2018-09-24T03:51:52.812Z,101483.38
2018-09-24T03:54:20.092Z,101481.14
2018-09-24T03:56:47.429Z,101483.69
2018-09-24T03:59:14.756Z,101489.83
2018-09-24T04:01:42.046Z,101489.19
2018-09-24T04:04:15.017Z,101487.34
2018-09-24T04:06:47.996Z,101496.72
2018-09-24T04:09:21.084Z,101485.73
2018-09-24T04:11:53.779Z,101494.70
2018-09-24T04:14:26.861Z,101504.06
2018-09-24T04:16:59.950Z,101512.67
2018-09-24T04:19:33.057Z,101504.35
2018-09-24T04:22:06.070Z,101505.50
2018-09-24T04:24:39.023Z,101501.57
2018-09-24T04:27:12.073Z,101523.22
2018-09-24T04:29:45.135Z,101533.69
2018-09-24T04:32:18.189Z,101543.97
2018-09-24T04:34:51.307Z,101533.45
2018-09-24T04:37:24.317Z,101533.58
2018-09-24T04:39:57.208Z,101525.01
2018-09-24T04:42:30.348Z,101556.63
2018-09-24T04:45:03.573Z,101550.49
2018-09-24T04:47:37.073Z,101553.04
2018-09-24T04:50:10.409Z,101565.37
2018-09-24T04:52:43.368Z,101573.12
2018-09-24T04:55:16.446Z,101592.26
2018-09-24T04:57:49.230Z,101580.89
2018-09-24T05:00:22.325Z,101583.41
2018-09-24T05:02:55.302Z,101584.30
2018-09-24T05:05:28.363Z,101570.75
2018-09-24T05:08:01.394Z,101571.53
2018-09-24T05:10:34.466Z,101575.73
2018-09-24T05:13:07.454Z,101582.30
2018-09-24T05:15:40.461Z,101575.40
2018-09-24T05:18:13.556Z,101587.23
2018-09-24T05:20:46.542Z,101588.41
2018-09-24T05:23:19.540Z,101588.58
2018-09-24T05:25:52.574Z,101603.36
2018-09-24T05:28:25.705Z,101597.61
2018-09-24T05:30:58.698Z,101606.72
2018-09-24T05:33:31.626Z,101603.53
2018-09-24T05:36:04.664Z,101600.98
2018-09-24T05:38:37.633Z,101602.92
2018-09-24T05:41:10.729Z,101613.92
2018-09-24T05:43:43.769Z,101614.91
2018-09-24T05:46:16.806Z,101620.53
2018-09-24T05:48:49.913Z,101624.80
2018-09-24T05:51:22.878Z,101631.75
2018-09-24T05:53:56.515Z,101631.55
2018-09-24T05:56:30.057Z,101640.27
2018-09-24T05:59:03.118Z,101640.55
2018-09-24T06:01:36.186Z,101637.45
2018-09-24T06:04:09.391Z,101636.94
2018-09-24T06:06:42.454Z,101645.35
2018-09-24T06:09:15.593Z,101638.44
2018-09-24T06:11:48.775Z,101643.37
2018-09-24T06:14:21.883Z,101642.56
2018-09-24T06:16:54.939Z,101658.87
2018-09-24T06:19:28.043Z,101644.94
2018-09-24T06:22:01.602Z,101655.11
2018-09-24T06:24:34.734Z,101662.45
2018-09-24T06:27:07.773Z,101682.13
2018-09-24T06:29:41.328Z,101688.77
2018-09-24T06:32:14.406Z,101690.47
2018-09-24T06:34:47.533Z,101695.50
2018-09-24T06:37:20.641Z,101701.02
2018-09-24T06:39:53.696Z,101710.12
2018-09-24T06:42:26.523Z,101703.09
2018-09-24T06:44:59.446Z,101710.68
2018-09-24T06:47:32.516Z,101708.74
2018-09-24T06:50:06.054Z,101717.39
2018-09-24T06:52:39.113Z,101719.17
2018-09-24T06:55:11.969Z,101726.91
2018-09-24T06:57:45.003Z,101720.05
2018-09-24T07:00:18.101Z,101736.95
2018-09-24T07:02:51.061Z,101733.39
2018-09-24T07:05:24.064Z,101745.16
2018-09-24T07:07:57.200Z,101749.81
2018-09-24T07:10:30.261Z,101762.30
2018-09-24T07:13:03.263Z,101760.84
2018-09-24T07:15:36.083Z,101752.44
2018-09-24T07:18:09.238Z,101762.98
2018-09-24T07:20:42.162Z,101782.30
2018-09-24T07:23:15.967Z,101785.74
2018-09-24T07:25:48.967Z,101790.73
2018-09-24T07:28:22.062Z,101794.92
2018-09-24T07:30:55.084Z,101804.42
2018-09-24T07:33:28.044Z,101803.67
2018-09-24T07:36:01.168Z,101810.41
2018-09-24T07:38:34.236Z,101812.41
2018-09-24T07:41:07.212Z,101812.57
2018-09-24T07:43:40.303Z,101822.72
2018-09-24T07:46:13.900Z,101842.91
2018-09-24T07:48:46.790Z,101839.11
2018-09-24T07:51:19.818Z,101843.42
2018-09-24T07:53:52.870Z,101856.43
2018-09-24T07:56:25.921Z,101855.38
2018-09-24T07:58:59.010Z,101861.22
2018-09-24T08:01:31.948Z,101852.15
2018-09-24T08:04:04.976Z,101859.66
2018-09-24T08:06:38.132Z,101850.98
2018-09-24T08:09:12.402Z,101853.39
2018-09-24T08:11:45.995Z,101843.68
2018-09-24T08:14:18.967Z,101859.11
2018-09-24T08:16:52.364Z,101856.25
2018-09-24T08:19:25.371Z,101864.11
2018-09-24T08:21:58.466Z,101875.84
2018-09-24T08:24:31.526Z,101890.11
2018-09-24T08:27:04.707Z,101891.13
2018-09-24T08:29:37.830Z,101911.08
2018-09-24T08:32:10.934Z,101918.63
2018-09-24T08:34:44.018Z,101909.70
2018-09-24T08:37:17.060Z,101925.42
2018-09-24T08:39:50.776Z,101928.88
2018-09-24T08:42:23.830Z,101923.73
2018-09-24T08:44:56.879Z,101918.67
2018-09-24T08:47:29.971Z,101924.59
2018-09-24T08:50:03.050Z,101932.73
2018-09-24T08:52:36.282Z,101936.20
2018-09-24T08:55:09.865Z,101935.03
2018-09-24T08:57:43.051Z,101938.66
2018-09-24T09:00:16.209Z,101932.20
2018-09-24T09:02:49.407Z,101932.63
2018-09-24T09:05:22.441Z,101947.41
2018-09-24T09:07:55.501Z,101951.66
2018-09-24T09:10:28.517Z,101951.47
2018-09-24T09:13:01.488Z,101951.56
2018-09-24T09:15:34.513Z,101969.87
2018-09-24T09:18:07.410Z,101975.03
2018-09-24T09:20:40.472Z,101979.94
2018-09-24T09:23:13.540Z,101977.50
2018-09-24T09:25:46.536Z,101983.05
2018-09-24T09:28:19.483Z,101979.98
2018-09-24T09:30:52.558Z,101979.06
2018-09-24T09:33:25.590Z,101988.27
2018-09-24T09:35:58.724Z,101993.22
2018-09-24T09:38:31.812Z,101969.34
2018-09-24T09:41:04.725Z,101973.00
2018-09-24T09:43:37.855Z,101974.52
2018-09-24T09:46:10.869Z,101969.56
2018-09-24T09:48:44.039Z,101975.17
2018-09-24T09:51:17.152Z,101981.20
2018-09-24T09:53:50.210Z,101992.33
2018-09-24T09:56:23.024Z,101982.77
2018-09-24T09:58:56.108Z,101965.02
2018-09-24T10:01:29.222Z,101977.36
2018-09-24T10:04:02.315Z,101978.20
2018-09-24T10:06:35.294Z,101960.59
2018-09-24T10:09:08.156Z,101991.91
2018-09-24T10:11:41.272Z,101957.48
2018-09-24T10:14:14.302Z,101978.72
2018-09-24T10:16:47.583Z,101964.80
2018-09-24T10:19:20.789Z,101968.48
2018-09-24T10:21:53.875Z,101968.33
2018-09-24T10:24:27.354Z,101956.84
2018-09-24T10:27:00.953Z,101960.40
2018-09-24T10:29:33.920Z,101971.42
2018-09-24T10:32:06.945Z,101970.80
2018-09-24T10:34:39.890Z,101977.30
2018-09-24T10:37:12.901Z,101989.73
2018-09-24T10:39:45.900Z,101983.44
2018-09-24T10:42:18.917Z,101994.02
2018-09-24T10:44:51.939Z,101992.63
2018-09-24T10:47:24.747Z,101984.32
2018-09-24T10:49:57.701Z,102009.00
2018-09-24T10:52:30.832Z,102026.31
2018-09-24T10:55:03.803Z,102040.44
2018-09-24T10:57:36.860Z,102037.67
2018-09-24T11:00:09.944Z,102025.91
2018-09-24T11:02:43.158Z,102019.14
2018-09-24T11:05:16.308Z,102023.98
2018-09-24T11:07:49.425Z,102014.77
2018-09-24T11:10:22.591Z,102014.02
2018-09-24T11:12:55.664Z,102010.11
2018-09-24T11:15:28.778Z,102019.18
2018-09-24T11:18:01.774Z,102014.97
2018-09-24T11:20:34.713Z,102012.78
2018-09-24T11:23:07.684Z,102012.78
2018-09-24T11:25:41.172Z,102005.78
2018-09-24T11:28:14.232Z,102007.34
2018-09-24T11:30:47.301Z,102000.89
2018-09-24T11:33:20.413Z,102003.45
2018-09-24T11:35:53.368Z,102015.80
2018-09-24T11:38:26.430Z,102021.49
2018-09-24T11:40:59.540Z,102015.61
2018-09-24T11:43:32.662Z,102015.05
2018-09-24T11:46:05.871Z,102007.42
2018-09-24T11:48:39.050Z,102017.55
2018-09-24T11:51:12.110Z,102023.77
2018-09-24T11:53:45.345Z,102035.84
2018-09-24T11:56:18.449Z,102016.98
2018-09-24T11:58:51.471Z,102025.80
2018-09-24T12:01:25.431Z,102108.97
2018-09-24T12:04:04.313Z,102186.39
2018-09-24T12:06:37.338Z,102205.54
2018-09-24T12:09:13.225Z,102177.39
2018-09-24T12:11:46.523Z,102164.89
2018-09-24T12:14:19.729Z,102131.66
2018-09-24T12:16:52.724Z,102111.91
2018-09-24T12:19:25.773Z,102110.02
2018-09-24T12:21:58.806Z,102109.38
2018-09-24T12:24:31.828Z,102092.88
2018-09-24T12:27:05.036Z,102088.42
2018-09-24T12:29:38.115Z,102085.39
2018-09-24T12:32:11.119Z,102081.05
2018-09-24T12:34:44.174Z,102087.60
2018-09-24T12:37:17.387Z,102084.00
2018-09-24T12:39:50.440Z,102081.08
2018-09-24T12:42:23.502Z,102076.39
2018-09-24T12:44:56.637Z,102062.45
2018-09-24T12:47:29.706Z,102062.78
2018-09-24T12:50:02.826Z,102084.95
2018-09-24T12:52:35.800Z,102073.07
2018-09-24T12:55:08.775Z,102067.67
2018-09-24T12:57:41.820Z,102079.03
2018-09-24T13:00:15.387Z,102086.94
2018-09-24T13:02:48.401Z,102083.66
2018-09-24T13:05:21.469Z,102094.37
2018-09-24T13:07:54.502Z,102099.72
2018-09-24T13:10:27.559Z,102094.35
2018-09-24T13:13:00.795Z,102099.17
2018-09-24T13:15:33.806Z,102103.28
2018-09-24T13:18:13.941Z,102099.05
2018-09-24T13:20:47.034Z,102093.09
2018-09-24T13:23:20.134Z,102076.20
2018-09-24T13:25:53.040Z,102086.16
2018-09-24T13:28:26.061Z,102083.17
2018-09-24T13:30:59.119Z,102086.19
2018-09-24T13:33:32.264Z,102077.48
2018-09-24T13:36:05.299Z,102089.52
2018-09-24T13:38:38.279Z,102091.95
2018-09-24T13:41:11.304Z,102095.34
2018-09-24T13:43:44.312Z,102099.94
2018-09-24T13:46:17.281Z,102114.45
2018-09-24T13:48:50.286Z,102111.54
2018-09-24T13:51:23.276Z,102115.06
2018-09-24T13:53:57.153Z,102131.78
2018-09-24T13:56:30.144Z,102118.45
2018-09-24T13:59:03.270Z,102101.82
2018-09-24T14:01:36.141Z,102106.39
2018-09-24T14:04:09.423Z,102104.15
2018-09-24T14:06:42.825Z,102097.70
2018-09-24T14:09:16.345Z,102094.71
2018-09-24T14:11:49.468Z,102097.64
2018-09-24T14:14:22.708Z,102092.70
2018-09-24T14:16:55.786Z,102089.31
2018-09-24T14:19:28.914Z,102096.47
2018-09-24T14:22:02.126Z,102087.89
2018-09-24T14:24:35.145Z,102088.55
2018-09-24T14:27:08.224Z,102090.83
2018-09-24T14:29:41.386Z,102100.73
2018-09-24T14:32:14.473Z,102091.14
2018-09-24T14:34:47.487Z,102099.36
2018-09-24T14:37:20.531Z,102100.73
2018-09-24T14:39:53.525Z,102109.81
2018-09-24T14:42:26.581Z,102103.68
2018-09-24T14:44:59.725Z,102105.83
2018-09-24T14:47:32.803Z,102104.70
2018-09-24T14:50:05.739Z,102102.88
2018-09-24T14:52:39.807Z,102093.66
2018-09-24T14:55:12.808Z,102094.45
2018-09-24T14:57:45.938Z,102090.34
2018-09-24T15:00:18.884Z,102091.09
2018-09-24T15:02:51.928Z,102088.20
2018-09-24T15:05:25.020Z,102093.72
2018-09-24T15:07:58.076Z,102091.87
2018-09-24T15:10:30.980Z,102086.89
2018-09-24T15:13:04.095Z,102100.19
2018-09-24T15:15:37.125Z,102103.85
2018-09-24T15:18:10.022Z,102099.61
2018-09-24T15:20:43.106Z,102108.45
2018-09-24T15:23:16.563Z,102112.81
2018-09-24T15:25:49.697Z,102128.45
2018-09-24T15:28:23.230Z,102128.33
2018-09-24T15:30:56.282Z,102139.95
2018-09-24T15:33:29.318Z,102150.20
2018-09-24T15:36:02.249Z,102143.33
2018-09-24T15:38:35.314Z,102143.32
2018-09-24T15:41:08.251Z,102154.42
2018-09-24T15:43:41.288Z,102150.23
2018-09-24T15:46:14.368Z,102133.08
2018-09-24T15:48:47.250Z,102137.05
2018-09-24T15:51:20.272Z,102146.95
2018-09-24T15:53:53.263Z,102144.75
2018-09-24T15:56:26.429Z,102142.23
2018-09-24T15:58:59.541Z,102152.59
2018-09-24T16:01:32.831Z,102159.75
2018-09-24T16:04:05.920Z,102166.03
2018-09-24T16:06:38.763Z,102174.23
2018-09-24T16:09:13.344Z,102169.01
2018-09-24T16:11:46.475Z,102148.28
2018-09-24T16:14:19.681Z,102152.80
2018-09-24T16:16:52.843Z,102152.85
2018-09-24T16:19:25.790Z,102164.92
2018-09-24T16:21:58.738Z,102156.94
2018-09-24T16:24:31.869Z,102164.05
2018-09-24T16:27:04.983Z,102157.07
2018-09-24T16:29:37.975Z,102158.36
2018-09-24T16:32:10.951Z,102161.06
2018-09-24T16:34:44.081Z,102155.07
2018-09-24T16:37:16.960Z,102159.09
2018-09-24T16:39:50.012Z,102165.64
2018-09-24T16:42:22.938Z,102172.82
2018-09-24T16:44:55.795Z,102175.08
2018-09-24T16:47:28.866Z,102182.20
2018-09-24T16:50:01.924Z,102188.22
2018-09-24T16:52:34.825Z,102192.91
2018-09-24T16:55:07.896Z,102191.54
2018-09-24T16:57:40.905Z,102198.80
2018-09-24T17:00:14.240Z,102194.86
2018-09-24T17:02:47.314Z,102205.45
2018-09-24T17:05:20.449Z,102203.64
2018-09-24T17:07:53.498Z,102197.92
2018-09-24T17:10:27.279Z,102196.95
2018-09-24T17:13:00.319Z,102205.41
2018-09-24T17:15:33.358Z,102207.79
2018-09-24T17:18:06.370Z,102209.87
2018-09-24T17:20:39.508Z,102212.34
2018-09-24T17:23:12.427Z,102215.35
2018-09-24T17:25:45.733Z,102215.72
2018-09-24T17:28:18.867Z,102219.68
2018-09-24T17:30:51.949Z,102223.53
2018-09-24T17:33:25.041Z,102227.53
2018-09-24T17:35:58.137Z,102239.06
2018-09-24T17:38:31.117Z,102232.03
2018-09-24T17:41:04.266Z,102232.75
2018-09-24T17:43:37.155Z,102243.58
2018-09-24T17:46:10.374Z,102244.89
2018-09-24T17:48:43.449Z,102244.67
2018-09-24T17:51:16.510Z,102244.53
2018-09-24T17:53:49.555Z,102259.77
2018-09-24T17:56:22.611Z,102252.53
2018-09-24T17:58:55.524Z,102256.80
2018-09-24T18:01:28.551Z,102263.47
2018-09-24T18:04:01.644Z,102248.84
2018-09-24T18:06:34.605Z,102260.70
2018-09-24T18:09:07.439Z,102261.80
2018-09-24T18:11:40.510Z,102266.80
2018-09-24T18:14:13.556Z,102271.59
2018-09-24T18:16:46.632Z,102270.56
2018-09-24T18:19:19.663Z,102269.34
2018-09-24T18:21:52.626Z,102277.04
2018-09-24T18:24:25.635Z,102277.58
2018-09-24T18:26:58.747Z,102291.77
2018-09-24T18:29:31.821Z,102297.26
2018-09-24T18:32:04.962Z,102295.58
2018-09-24T18:34:37.917Z,102305.34
2018-09-24T18:37:11.600Z,102315.03
2018-09-24T18:39:44.446Z,102317.83
2018-09-24T18:42:17.593Z,102321.39
2018-09-24T18:44:50.473Z,102327.84
2018-09-24T18:47:23.586Z,102335.02
2018-09-24T18:49:56.656Z,102337.98
2018-09-24T18:52:29.761Z,102340.28
2018-09-24T18:55:02.851Z,102343.86
2018-09-24T19:00:29.516Z,102348.66
2018-09-24T19:03:05.796Z,102344.20
2018-09-24T19:05:38.841Z,102355.05
2018-09-24T19:08:11.951Z,102359.73
2018-09-24T19:10:44.880Z,102354.12
2018-09-24T19:13:18.018Z,102356.30
2018-09-24T19:15:51.124Z,102358.55
2018-09-24T19:18:24.204Z,102355.00
2018-09-24T19:20:57.288Z,102353.16
2018-09-24T19:23:30.279Z,102365.25
2018-09-24T19:26:03.247Z,102362.00
2018-09-24T19:28:36.349Z,102365.14
2018-09-24T19:31:09.553Z,102378.55
2018-09-24T19:33:42.653Z,102371.50
2018-09-24T19:36:15.722Z,102381.66
2018-09-24T19:38:48.773Z,102388.20
2018-09-24T19:41:22.187Z,102392.09
2018-09-24T19:43:55.104Z,102381.86
2018-09-24T19:46:28.117Z,102390.41
2018-09-24T19:49:01.172Z,102393.78
2018-09-24T19:51:34.274Z,102408.02
2018-09-24T19:54:07.368Z,102408.86
2018-09-24T19:56:40.461Z,102408.23
2018-09-24T19:59:13.536Z,102405.05
2018-09-24T20:01:46.704Z,102408.27
2018-09-24T20:04:19.576Z,102413.53
2018-09-24T20:06:52.476Z,102412.52
2018-09-24T20:09:25.599Z,102409.17
2018-09-24T20:11:58.572Z,102415.01
2018-09-24T20:14:31.496Z,102425.03
2018-09-24T20:17:04.532Z,102421.61
2018-09-24T20:19:37.463Z,102429.44
2018-09-24T20:22:12.862Z,102426.76
2018-09-24T20:24:46.405Z,102426.97
2018-09-24T20:27:19.781Z,102434.84
2018-09-24T20:29:52.902Z,102438.50
2018-09-24T20:32:26.012Z,102437.80
2018-09-24T20:34:59.266Z,102441.40
2018-09-24T20:37:32.327Z,102441.43
2018-09-24T20:40:05.369Z,102443.58
2018-09-24T20:42:38.952Z,102450.65
2018-09-24T20:45:12.096Z,102453.30
2018-09-24T20:47:45.072Z,102456.96
2018-09-24T20:50:18.063Z,102460.83
2018-09-24T20:52:51.102Z,102461.22
2018-09-24T20:55:23.967Z,102464.37
2018-09-24T20:57:57.099Z,102461.30
2018-09-24T21:00:30.585Z,102466.82
2018-09-24T21:03:03.605Z,102469.22
2018-09-24T21:05:36.552Z,102477.16
2018-09-24T21:08:09.693Z,102479.20
2018-09-24T21:10:43.275Z,102483.63
2018-09-24T21:13:16.383Z,102492.13
2018-09-24T21:15:49.372Z,102490.85
2018-09-24T21:18:22.597Z,102493.27
2018-09-24T21:20:55.586Z,102499.16
2018-09-24T21:23:28.521Z,102506.23
2018-09-24T21:26:01.606Z,102516.67
2018-09-24T21:28:35.138Z,102517.84
2018-09-24T21:31:08.190Z,102521.68
2018-09-24T21:33:41.259Z,102525.46
2018-09-24T21:36:14.309Z,102523.17
2018-09-24T21:38:47.347Z,102530.12
2018-09-24T21:41:20.203Z,102529.11
2018-09-24T21:43:53.263Z,102533.59
2018-09-24T21:46:26.444Z,102525.44
2018-09-24T21:48:59.450Z,102531.50
2018-09-24T21:51:32.521Z,102535.12
2018-09-24T21:54:05.437Z,102532.94
2018-09-24T21:56:38.369Z,102537.71
2018-09-24T21:59:11.421Z,102538.27
2018-09-24T22:01:44.346Z,102542.94
2018-09-24T22:04:17.479Z,102544.77
2018-09-24T22:06:50.423Z,102545.10
2018-09-24T22:09:24.257Z,102549.83
2018-09-24T22:11:57.241Z,102548.45
2018-09-24T22:14:30.364Z,102548.63
2018-09-24T22:17:03.447Z,102552.11
2018-09-24T22:19:36.444Z,102555.69
2018-09-24T22:22:09.577Z,102555.08
2018-09-24T22:24:42.633Z,102562.00
2018-09-24T22:27:15.708Z,102561.95
2018-09-24T22:29:48.567Z,102561.02
2018-09-24T22:32:22.151Z,102565.67
2018-09-24T22:34:55.196Z,102564.33
2018-09-24T22:37:28.280Z,102560.34
2018-09-24T22:40:01.367Z,102559.28
2018-09-24T22:42:34.317Z,102566.34
2018-09-24T22:45:07.280Z,102566.36
2018-09-24T22:47:40.311Z,102573.63
2018-09-24T22:50:13.397Z,102573.97
2018-09-24T22:52:46.403Z,102580.36
2018-09-24T22:55:19.519Z,102583.34
2018-09-24T22:57:52.981Z,102587.34
2018-09-24T23:00:26.025Z,102588.84
2018-09-24T23:02:59.099Z,102585.79
2018-09-24T23:05:32.317Z,102583.64
2018-09-24T23:08:05.343Z,102582.72
2018-09-24T23:10:38.492Z,102582.95
2018-09-24T23:13:11.536Z,102581.67
2018-09-24T23:15:44.706Z,102588.19
2018-09-24T23:18:17.616Z,102590.11
2018-09-24T23:20:50.744Z,102594.91
2018-09-24T23:23:23.794Z,102595.02
2018-09-24T23:25:56.807Z,102586.41
2018-09-24T23:28:29.891Z,102597.55
2018-09-24T23:31:02.667Z,102589.66
2018-09-24T23:33:35.685Z,102592.47
2018-09-24T23:36:08.847Z,102600.23
2018-09-24T23:38:41.846Z,102596.23
2018-09-24T23:41:14.899Z,102596.55
2018-09-24T23:43:47.894Z,102597.02
2018-09-24T23:46:20.914Z,102604.36
2018-09-24T23:48:53.712Z,102607.95
2018-09-24T23:51:26.829Z,102603.73
2018-09-24T23:53:59.932Z,102605.65
2018-09-24T23:56:32.956Z,102612.11
2018-09-24T23:59:06.476Z,102613.08
